HTDO

Dodoma Airport

Dodoma, Tanzania
METAR HTDO 180000Z 11005KT CAVOK 16/13 Q1018 NOSIG
Observed Flight Rules
Aug-18 @ 00:00 UTC (2 hours ago) Visual Flight Rules
Wind Visibility Clouds
110° at 5 knots 10,000+ meters
  • Clear skies
Temperatures Readings
Current 16°C / 61°F
Dewpoint 13°C / 55°F
Humidity 83%
Altimeter 30.06" Hg
Pressure 1018 hPa
Elevation 1120
METAR HTDO 180000Z 11005KT CAVOK 16/13 Q1018 NOSIG
Observed Flight Rules
Aug-18 @ 00:00 UTC
(2 hours ago)
VFR
Wind Visibility
110° at 5 knots 10,000+ meters
Clouds
  • Clear skies
Temperature Dewpoint
16°C / 61°F 13°C / 55°F
Humidity Altimeter Pressure
83% 30.06" Hg 1018 hPa